sensor_id;sensor_type;location;lat;lon;timestamp;P1;durP1;ratioP1;P2;durP2;ratioP2
57339;SDS011;43174;50.930;18.170;2023-06-26T00:07:14;7.50;;;7.10;;
57339;SDS011;43174;50.930;18.170;2023-06-26T00:16:57;6.70;;;6.30;;
57339;SDS011;43174;50.930;18.170;2023-06-26T00:26:39;8.00;;;7.60;;
57339;SDS011;43174;50.930;18.170;2023-06-26T00:36:21;7.90;;;7.10;;
57339;SDS011;43174;50.930;18.170;2023-06-26T00:46:05;8.30;;;7.70;;
57339;SDS011;43174;50.930;18.170;2023-06-26T00:55:49;8.10;;;7.40;;
57339;SDS011;43174;50.930;18.170;2023-06-26T01:05:31;6.60;;;6.30;;
57339;SDS011;43174;50.930;18.170;2023-06-26T01:15:14;13.20;;;8.20;;
57339;SDS011;43174;50.930;18.170;2023-06-26T01:34:49;8.90;;;8.30;;
57339;SDS011;43174;50.930;18.170;2023-06-26T01:44:32;9.80;;;8.10;;
57339;SDS011;43174;50.930;18.170;2023-06-26T01:54:19;10.40;;;6.90;;
57339;SDS011;43174;50.930;18.170;2023-06-26T02:04:04;10.70;;;8.90;;
57339;SDS011;43174;50.930;18.170;2023-06-26T02:13:47;6.50;;;6.20;;
57339;SDS011;43174;50.930;18.170;2023-06-26T02:23:29;7.80;;;7.20;;
57339;SDS011;43174;50.930;18.170;2023-06-26T02:33:11;6.40;;;5.90;;
57339;SDS011;43174;50.930;18.170;2023-06-26T02:42:53;9.80;;;9.00;;
57339;SDS011;43174;50.930;18.170;2023-06-26T02:52:34;9.90;;;9.20;;
57339;SDS011;43174;50.930;18.170;2023-06-26T03:02:16;24.80;;;9.60;;
57339;SDS011;43174;50.930;18.170;2023-06-26T03:11:59;8.40;;;7.70;;
57339;SDS011;43174;50.930;18.170;2023-06-26T03:21:44;10.40;;;9.90;;
57339;SDS011;43174;50.930;18.170;2023-06-26T03:31:26;7.00;;;6.50;;
57339;SDS011;43174;50.930;18.170;2023-06-26T03:41:08;17.30;;;8.40;;
57339;SDS011;43174;50.930;18.170;2023-06-26T03:53:15;13.10;;;12.30;;
57339;SDS011;43174;50.930;18.170;2023-06-26T04:02:57;12.30;;;11.60;;
57339;SDS011;43174;50.930;18.170;2023-06-26T04:12:38;13.20;;;12.50;;
57339;SDS011;43174;50.930;18.170;2023-06-26T04:22:20;10.80;;;10.20;;
57339;SDS011;43174;50.930;18.170;2023-06-26T04:32:04;13.10;;;12.30;;
57339;SDS011;43174;50.930;18.170;2023-06-26T04:41:50;12.30;;;11.30;;
57339;SDS011;43174;50.930;18.170;2023-06-26T04:51:32;12.50;;;11.60;;
57339;SDS011;43174;50.930;18.170;2023-06-26T05:01:15;30.20;;;13.90;;
57339;SDS011;43174;50.930;18.170;2023-06-26T05:10:56;12.00;;;11.30;;
57339;SDS011;43174;50.930;18.170;2023-06-26T05:20:41;14.20;;;13.40;;
57339;SDS011;43174;50.930;18.170;2023-06-26T05:30:25;11.80;;;11.10;;
57339;SDS011;43174;50.930;18.170;2023-06-26T05:40:07;9.40;;;8.80;;
57339;SDS011;43174;50.930;18.170;2023-06-26T05:49:49;9.50;;;8.90;;
57339;SDS011;43174;50.930;18.170;2023-06-26T05:59:31;11.00;;;10.50;;
57339;SDS011;43174;50.930;18.170;2023-06-26T06:09:14;10.10;;;9.60;;
57339;SDS011;43174;50.930;18.170;2023-06-26T06:18:58;15.30;;;9.70;;
57339;SDS011;43174;50.930;18.170;2023-06-26T06:28:40;8.90;;;8.30;;
57339;SDS011;43174;50.930;18.170;2023-06-26T06:38:22;8.80;;;8.30;;
57339;SDS011;43174;50.930;18.170;2023-06-26T06:48:04;6.80;;;6.50;;
57339;SDS011;43174;50.930;18.170;2023-06-26T06:57:49;4.30;;;4.10;;
57339;SDS011;43174;50.930;18.170;2023-06-26T07:07:32;3.40;;;3.30;;
57339;SDS011;43174;50.930;18.170;2023-06-26T07:17:15;4.30;;;4.00;;
57339;SDS011;43174;50.930;18.170;2023-06-26T07:26:57;4.60;;;4.40;;
57339;SDS011;43174;50.930;18.170;2023-06-26T07:36:39;3.90;;;3.60;;
57339;SDS011;43174;50.930;18.170;2023-06-26T07:46:22;1.60;;;1.50;;
57339;SDS011;43174;50.930;18.170;2023-06-26T07:56:04;2.80;;;2.70;;
57339;SDS011;43174;50.930;18.170;2023-06-26T08:05:46;21.60;;;2.50;;
57339;SDS011;43174;50.930;18.170;2023-06-26T08:15:28;2.60;;;2.50;;
57339;SDS011;43174;50.930;18.170;2023-06-26T08:25:13;2.60;;;2.40;;
57339;SDS011;43174;50.930;18.170;2023-06-26T08:34:55;1.70;;;1.60;;
57339;SDS011;43174;50.930;18.170;2023-06-26T08:44:37;3.90;;;3.70;;
57339;SDS011;43174;50.930;18.170;2023-06-26T08:54:21;2.90;;;2.70;;
57339;SDS011;43174;50.930;18.170;2023-06-26T09:04:04;2.90;;;2.20;;
57339;SDS011;43174;50.930;18.170;2023-06-26T09:13:48;3.80;;;2.40;;
57339;SDS011;43174;50.930;18.170;2023-06-26T09:23:30;3.20;;;3.10;;
57339;SDS011;43174;50.930;18.170;2023-06-26T09:33:13;2.80;;;2.70;;
57339;SDS011;43174;50.930;18.170;2023-06-26T09:43:02;1.80;;;1.70;;
57339;SDS011;43174;50.930;18.170;2023-06-26T09:52:44;3.10;;;2.90;;
57339;SDS011;43174;50.930;18.170;2023-06-26T10:02:27;1.90;;;1.80;;
57339;SDS011;43174;50.930;18.170;2023-06-26T10:12:15;2.60;;;2.10;;
57339;SDS011;43174;50.930;18.170;2023-06-26T10:21:59;2.10;;;2.00;;
57339;SDS011;43174;50.930;18.170;2023-06-26T10:31:42;1.50;;;1.40;;
57339;SDS011;43174;50.930;18.170;2023-06-26T10:41:25;1.70;;;1.60;;
57339;SDS011;43174;50.930;18.170;2023-06-26T10:51:13;6.70;;;2.20;;
57339;SDS011;43174;50.930;18.170;2023-06-26T11:10:54;2.30;;;2.20;;
57339;SDS011;43174;50.930;18.170;2023-06-26T11:20:44;2.30;;;2.20;;
57339;SDS011;43174;50.930;18.170;2023-06-26T11:30:26;2.60;;;2.50;;
57339;SDS011;43174;50.930;18.170;2023-06-26T11:40:21;2.30;;;2.20;;
57339;SDS011;43174;50.930;18.170;2023-06-26T11:50:04;1.90;;;1.80;;
57339;SDS011;43174;50.930;18.170;2023-06-26T12:00:11;1.90;;;1.80;;
57339;SDS011;43174;50.930;18.170;2023-06-26T12:09:53;2.40;;;2.30;;
57339;SDS011;43174;50.930;18.170;2023-06-26T12:19:37;2.20;;;2.10;;
57339;SDS011;43174;50.930;18.170;2023-06-26T12:29:21;3.40;;;2.60;;
57339;SDS011;43174;50.930;18.170;2023-06-26T12:39:09;1.70;;;1.60;;
57339;SDS011;43174;50.930;18.170;2023-06-26T12:48:54;2.90;;;2.70;;
57339;SDS011;43174;50.930;18.170;2023-06-26T12:58:36;2.30;;;1.40;;
57339;SDS011;43174;50.930;18.170;2023-06-26T13:08:19;2.80;;;2.60;;
57339;SDS011;43174;50.930;18.170;2023-06-26T13:18:01;2.50;;;2.40;;
57339;SDS011;43174;50.930;18.170;2023-06-26T13:27:44;1.90;;;1.80;;
57339;SDS011;43174;50.930;18.170;2023-06-26T13:37:28;0.60;;;0.60;;
57339;SDS011;43174;50.930;18.170;2023-06-26T13:47:12;2.00;;;1.90;;
57339;SDS011;43174;50.930;18.170;2023-06-26T13:56:55;0.70;;;0.70;;
57339;SDS011;43174;50.930;18.170;2023-06-26T14:06:41;2.20;;;2.10;;
57339;SDS011;43174;50.930;18.170;2023-06-26T14:16:25;2.30;;;1.10;;
57339;SDS011;43174;50.930;18.170;2023-06-26T14:26:07;2.30;;;2.10;;
57339;SDS011;43174;50.930;18.170;2023-06-26T14:35:50;7.10;;;3.00;;
57339;SDS011;43174;50.930;18.170;2023-06-26T14:45:33;2.40;;;1.80;;
57339;SDS011;43174;50.930;18.170;2023-06-26T14:55:15;1.70;;;1.60;;
57339;SDS011;43174;50.930;18.170;2023-06-26T15:04:58;1.00;;;0.90;;
57339;SDS011;43174;50.930;18.170;2023-06-26T15:14:40;1.70;;;1.60;;
57339;SDS011;43174;50.930;18.170;2023-06-26T15:24:22;2.50;;;2.40;;
57339;SDS011;43174;50.930;18.170;2023-06-26T15:34:06;1.70;;;1.60;;
57339;SDS011;43174;50.930;18.170;2023-06-26T15:43:48;1.60;;;1.50;;
57339;SDS011;43174;50.930;18.170;2023-06-26T15:53:35;2.20;;;2.00;;
57339;SDS011;43174;50.930;18.170;2023-06-26T16:03:19;1.30;;;1.10;;
57339;SDS011;43174;50.930;18.170;2023-06-26T16:13:01;2.60;;;2.50;;
57339;SDS011;43174;50.930;18.170;2023-06-26T16:17:53;3.70;;;2.90;;
57339;SDS011;43174;50.930;18.170;2023-06-26T16:27:36;3.00;;;2.80;;
57339;SDS011;43174;50.930;18.170;2023-06-26T16:37:19;2.80;;;2.70;;
57339;SDS011;43174;50.930;18.170;2023-06-26T16:47:02;2.40;;;2.20;;
57339;SDS011;43174;50.930;18.170;2023-06-26T16:56:47;1.80;;;1.70;;
57339;SDS011;43174;50.930;18.170;2023-06-26T17:06:29;2.90;;;2.70;;
57339;SDS011;43174;50.930;18.170;2023-06-26T17:16:12;2.00;;;1.90;;
57339;SDS011;43174;50.930;18.170;2023-06-26T17:25:54;2.50;;;2.30;;
57339;SDS011;43174;50.930;18.170;2023-06-26T17:35:39;3.00;;;2.90;;
57339;SDS011;43174;50.930;18.170;2023-06-26T17:45:21;2.00;;;1.90;;
57339;SDS011;43174;50.930;18.170;2023-06-26T17:55:04;2.30;;;2.20;;
57339;SDS011;43174;50.930;18.170;2023-06-26T18:04:47;2.40;;;2.30;;
57339;SDS011;43174;50.930;18.170;2023-06-26T18:14:30;12.50;;;3.10;;
57339;SDS011;43174;50.930;18.170;2023-06-26T18:24:12;2.50;;;2.30;;
57339;SDS011;43174;50.930;18.170;2023-06-26T18:33:54;3.10;;;2.90;;
57339;SDS011;43174;50.930;18.170;2023-06-26T18:43:39;4.60;;;4.40;;
57339;SDS011;43174;50.930;18.170;2023-06-26T18:53:22;10.70;;;4.70;;
57339;SDS011;43174;50.930;18.170;2023-06-26T19:03:07;3.90;;;3.70;;
57339;SDS011;43174;50.930;18.170;2023-06-26T19:12:53;5.20;;;4.90;;
57339;SDS011;43174;50.930;18.170;2023-06-26T19:22:37;4.50;;;4.20;;
57339;SDS011;43174;50.930;18.170;2023-06-26T19:32:22;4.00;;;3.80;;
57339;SDS011;43174;50.930;18.170;2023-06-26T19:42:06;4.90;;;4.60;;
57339;SDS011;43174;50.930;18.170;2023-06-26T19:51:50;4.40;;;4.10;;
57339;SDS011;43174;50.930;18.170;2023-06-26T20:01:34;4.20;;;4.00;;
57339;SDS011;43174;50.930;18.170;2023-06-26T20:11:21;5.00;;;4.70;;
57339;SDS011;43174;50.930;18.170;2023-06-26T20:21:06;5.40;;;5.10;;
57339;SDS011;43174;50.930;18.170;2023-06-26T20:30:52;3.60;;;3.40;;
57339;SDS011;43174;50.930;18.170;2023-06-26T20:40:37;6.00;;;5.70;;
57339;SDS011;43174;50.930;18.170;2023-06-26T20:50:21;4.10;;;3.90;;
57339;SDS011;43174;50.930;18.170;2023-06-26T21:00:07;4.70;;;4.40;;
57339;SDS011;43174;50.930;18.170;2023-06-26T21:09:50;13.90;;;4.90;;
57339;SDS011;43174;50.930;18.170;2023-06-26T21:19:34;21.60;;;3.50;;
57339;SDS011;43174;50.930;18.170;2023-06-26T21:29:16;4.30;;;3.90;;
57339;SDS011;43174;50.930;18.170;2023-06-26T21:38:59;4.50;;;4.20;;
57339;SDS011;43174;50.930;18.170;2023-06-26T21:48:42;4.20;;;3.90;;
57339;SDS011;43174;50.930;18.170;2023-06-26T21:58:24;6.30;;;5.80;;
57339;SDS011;43174;50.930;18.170;2023-06-26T22:08:07;8.70;;;6.50;;
57339;SDS011;43174;50.930;18.170;2023-06-26T22:17:52;6.00;;;5.80;;
57339;SDS011;43174;50.930;18.170;2023-06-26T22:27:45;37.10;;;8.00;;
57339;SDS011;43174;50.930;18.170;2023-06-26T22:37:27;7.70;;;7.30;;
57339;SDS011;43174;50.930;18.170;2023-06-26T22:47:10;7.40;;;6.80;;
57339;SDS011;43174;50.930;18.170;2023-06-26T23:04:09;6.00;;;5.70;;
57339;SDS011;43174;50.930;18.170;2023-06-26T23:13:51;9.50;;;8.80;;
57339;SDS011;43174;50.930;18.170;2023-06-26T23:23:34;7.50;;;7.00;;
57339;SDS011;43174;50.930;18.170;2023-06-26T23:33:23;6.10;;;5.80;;
57339;SDS011;43174;50.930;18.170;2023-06-26T23:43:10;8.80;;;7.00;;
57339;SDS011;43174;50.930;18.170;2023-06-26T23:52:55;6.20;;;5.80;;
